Time;durP1;ratioP1;P1;durP2;ratioP2;P2;SDS_P1;SDS_P2;PMS_P1;PMS_P2;Temp;Humidity;BMP_temperature;BMP_pressure;BME280_temperature;BME280_humidity;BME280_pressure;Samples;Min_cycle;Max_cycle;Signal;HPM_P1;HPM_P2
2022/10/31 00:01:38;;;;;;;;;;;12.40;66.80;;;8.04;100.00;96059.81;4991042;28;20387;-48
2022/10/31 00:04:07;;;;;;;;;;;12.40;66.90;;;7.98;100.00;96052.81;4940119;28;20009;-46
2022/10/31 00:06:45;;;;;;;;;;;12.40;66.90;;;7.99;100.00;96054.41;4980703;28;19985;-48
2022/10/31 00:09:14;;;;;;;;;;;12.40;66.90;;;7.98;100.00;96050.16;4965156;28;20364;-48
2022/10/31 00:11:43;;;;;;;;;;;12.30;66.90;;;7.94;100.00;96055.13;4971295;28;19916;-52
2022/10/31 00:14:09;;;;;;;;;;;12.40;67.00;;;7.95;100.00;96050.63;4979701;28;20443;-53
2022/10/31 00:16:35;;;;;;;;;;;12.30;67.00;;;7.97;100.00;96053.84;4990499;28;19924;-47
2022/10/31 00:19:05;;;;;;;;;;;12.30;67.10;;;7.96;100.00;96061.00;4975370;28;19947;-48
2022/10/31 00:21:38;;;;;;;;;;;12.30;67.10;;;7.93;100.00;96058.00;4949128;28;20004;-47
2022/10/31 00:24:11;;;;;;;;;;;12.30;67.10;;;7.92;100.00;96054.53;4992736;28;19996;-47
2022/10/31 00:26:37;;;;;;;;;;;12.30;67.20;;;7.86;100.00;96058.13;4970830;28;20372;-46
2022/10/31 00:29:03;;;;;;;;;;;12.30;67.20;;;7.87;100.00;96046.50;4936627;28;19914;-48
2022/10/31 00:31:35;;;;;;;;;;;12.30;67.20;;;7.87;100.00;96049.97;4974521;28;19913;-48
2022/10/31 00:34:02;;;;;;;;;;;12.30;67.20;;;7.87;100.00;96051.81;4955557;28;19913;-47
2022/10/31 00:36:28;;;;;;;;;;;12.30;67.30;;;7.88;100.00;96048.09;4992235;28;20331;-45
2022/10/31 00:38:54;;;;;;;;;;;12.30;67.30;;;7.85;100.00;96045.94;4983275;28;19957;-47
2022/10/31 00:41:20;;;;;;;;;;;12.30;67.30;;;7.80;100.00;96046.66;4991269;28;19920;-53
2022/10/31 00:43:49;;;;;;;;;;;12.20;67.30;;;7.79;100.00;96049.53;4974607;28;20330;-50
2022/10/31 00:46:14;;;;;;;;;;;12.20;67.20;;;7.74;100.00;96050.25;4965056;28;19909;-45
2022/10/31 00:48:41;;;;;;;;;;;12.20;67.20;;;7.75;100.00;96051.03;4992156;28;19909;-49
2022/10/31 00:51:10;;;;;;;;;;;12.20;67.30;;;7.76;100.00;96052.63;4987700;28;19995;-48
2022/10/31 00:53:38;;;;;;;;;;;12.20;67.30;;;7.76;100.00;96048.13;4956270;28;20285;-48
2022/10/31 00:56:05;;;;;;;;;;;12.20;67.40;;;7.79;100.00;96044.22;4983901;28;19909;-51
2022/10/31 00:58:30;;;;;;;;;;;12.10;67.50;;;7.77;100.00;96047.13;4972820;28;19909;-52
2022/10/31 01:00:56;;;;;;;;;;;12.10;67.50;;;7.77;100.00;96051.59;4971484;28;19920;-51
2022/10/31 01:03:32;;;;;;;;;;;12.20;67.50;;;7.74;100.00;96049.41;4972803;28;19910;-53
2022/10/31 01:06:02;;;;;;;;;;;12.10;67.50;;;7.70;100.00;96051.72;4990615;28;20000;-50
2022/10/31 01:08:29;;;;;;;;;;;12.10;67.50;;;7.69;100.00;96055.44;4988572;28;19964;-54
2022/10/31 01:11:17;;;;;;;;;;;12.10;67.50;;;7.64;100.00;96050.00;4970968;28;20336;-47
2022/10/31 01:13:49;;;;;;;;;;;12.10;67.50;;;7.61;100.00;96043.31;4971793;28;20377;-48
2022/10/31 01:16:23;;;;;;;;;;;12.10;67.50;;;7.60;100.00;96046.22;4959848;28;19913;-50
2022/10/31 01:18:55;;;;;;;;;;;12.00;67.50;;;7.57;100.00;96044.84;4958226;28;20341;-47
2022/10/31 01:21:24;;;;;;;;;;;12.00;67.50;;;7.52;100.00;96038.63;4969110;28;19910;-49
2022/10/31 01:23:54;;;;;;;;;;;12.00;67.50;;;7.49;100.00;96045.22;4978485;28;19909;-49
2022/10/31 01:26:32;;;;;;;;;;;12.00;67.60;;;7.52;100.00;96041.28;4954944;28;19925;-47
2022/10/31 01:29:03;;;;;;;;;;;11.90;67.60;;;7.46;100.00;96035.09;4949075;28;19941;-51
2022/10/31 01:31:32;;;;;;;;;;;12.00;67.60;;;7.45;100.00;96043.25;4989185;28;19913;-48
2022/10/31 01:34:02;;;;;;;;;;;11.90;67.60;;;7.45;100.00;96033.44;4964499;28;19913;-46
2022/10/31 01:36:40;;;;;;;;;;;11.90;67.60;;;7.47;100.00;96035.88;4974003;28;19909;-48
2022/10/31 01:39:15;;;;;;;;;;;11.90;67.80;;;7.46;100.00;96034.25;4981577;28;19927;-45
2022/10/31 01:41:52;;;;;;;;;;;11.90;67.80;;;7.49;100.00;96031.13;4980343;28;19909;-52
2022/10/31 01:44:26;;;;;;;;;;;11.90;67.90;;;7.47;100.00;96030.59;4960009;28;20016;-47
2022/10/31 01:47:29;;;;;;;;;;;11.90;67.90;;;7.46;100.00;96026.31;4981948;28;19909;-47
2022/10/31 01:50:01;;;;;;;;;;;11.90;67.90;;;7.44;100.00;96033.69;4979667;28;19913;-51
2022/10/31 01:52:51;;;;;;;;;;;11.80;67.90;;;7.44;100.00;96031.06;4970225;28;20435;-51
2022/10/31 01:55:40;;;;;;;;;;;11.80;67.90;;;7.41;100.00;96027.81;4990203;28;20642;-47
2022/10/31 01:58:23;;;;;;;;;;;11.80;67.90;;;7.40;100.00;96022.75;4983643;28;19920;-48
2022/10/31 02:01:01;;;;;;;;;;;11.80;67.90;;;7.37;100.00;96029.34;4973780;28;20000;-50
2022/10/31 02:03:30;;;;;;;;;;;11.80;67.90;;;7.33;100.00;96024.72;4952663;28;20411;-54
2022/10/31 02:05:58;;;;;;;;;;;11.80;68.00;;;7.27;100.00;96023.81;4990744;28;20322;-46
2022/10/31 02:08:33;;;;;;;;;;;11.80;67.90;;;7.27;100.00;96026.47;4988636;28;19960;-49
2022/10/31 02:11:02;;;;;;;;;;;11.70;67.90;;;7.26;100.00;96024.84;4990578;28;19975;-46
2022/10/31 02:13:33;;;;;;;;;;;11.70;67.90;;;7.27;100.00;96023.00;4990462;28;20008;-45
2022/10/31 02:16:01;;;;;;;;;;;11.70;67.90;;;7.27;100.00;96023.00;4975389;28;19945;-46
2022/10/31 02:18:32;;;;;;;;;;;11.70;68.00;;;7.26;100.00;96016.88;4985298;28;20000;-53
2022/10/31 02:21:26;;;;;;;;;;;11.70;68.00;;;7.24;100.00;96020.81;4978131;28;20492;-47
2022/10/31 02:23:58;;;;;;;;;;;11.70;68.00;;;7.21;100.00;96011.50;4976693;28;19924;-47
2022/10/31 02:26:50;;;;;;;;;;;11.70;68.10;;;7.20;100.00;96007.22;4986545;28;20052;-49
2022/10/31 02:30:07;;;;;;;;;;;11.70;68.10;;;7.17;100.00;96002.38;4957145;28;20710;-48
2022/10/31 02:33:17;;;;;;;;;;;11.60;68.10;;;7.16;100.00;96014.84;4971441;28;19964;-48
2022/10/31 02:36:33;;;;;;;;;;;11.60;68.20;;;7.19;100.00;96005.63;4972640;28;19925;-46
2022/10/31 02:39:17;;;;;;;;;;;11.60;68.30;;;7.19;100.00;96006.41;4981559;28;19964;-46
2022/10/31 02:42:27;;;;;;;;;;;11.60;68.40;;;7.20;100.00;96001.91;4969915;28;19910;-48
2022/10/31 02:45:32;;;;;;;;;;;11.60;68.40;;;7.19;100.00;96005.63;4968942;28;19917;-49
2022/10/31 02:48:13;;;;;;;;;;;11.60;68.40;;;7.12;100.00;96008.41;4975923;28;19913;-46
2022/10/31 02:50:47;;;;;;;;;;;11.60;68.40;;;7.11;100.00;96003.31;4955650;28;20008;-49
2022/10/31 02:53:15;;;;;;;;;;;11.60;68.30;;;7.08;100.00;96001.13;4993895;28;19913;-46
2022/10/31 02:56:35;;;;;;;;;;;11.60;68.40;;;7.11;100.00;96005.97;4993659;28;19918;-51
2022/10/31 02:59:07;;;;;;;;;;;11.60;68.40;;;7.06;100.00;96003.22;4863100;29;19960;-46
2022/10/31 03:02:46;;;;;;;;;;;11.50;68.30;;;7.04;100.00;96006.09;4874078;29;19916;-51
2022/10/31 03:05:33;;;;;;;;;;;11.50;68.40;;;6.99;100.00;96006.00;4876799;29;19918;-49
2022/10/31 03:09:12;;;;;;;;;;;11.50;68.30;;;6.96;100.00;96006.44;4877020;29;19968;-45
2022/10/31 03:11:57;;;;;;;;;;;11.50;68.30;;;6.92;100.00;95995.50;4869224;29;19911;-49
2022/10/31 03:14:55;;;;;;;;;;;11.40;69.20;;;6.93;100.00;95991.81;5000976;23;19966;-43
2022/10/31 03:17:41;;;;;;;;;;;11.40;68.40;;;6.97;100.00;95988.72;5007279;28;19976;-44
2022/10/31 03:20:10;;;;;;;;;;;11.40;68.60;;;6.97;100.00;95991.38;4995399;28;19948;-44
2022/10/31 03:22:44;;;;;;;;;;;11.40;68.60;;;6.93;100.00;95994.47;5008660;28;19916;-44
2022/10/31 03:25:11;;;;;;;;;;;11.40;68.50;;;6.90;100.00;95991.47;4976279;28;20265;-51
2022/10/31 03:27:46;;;;;;;;;;;11.40;68.80;;;6.84;100.00;95987.91;4955916;28;19910;-47
2022/10/31 03:30:16;;;;;;;;;;;11.40;68.40;;;6.84;100.00;95987.09;4993521;28;19916;-46
2022/10/31 03:32:56;;;;;;;;;;;11.40;68.40;;;6.84;100.00;95989.75;4974400;28;19910;-47
2022/10/31 03:35:28;;;;;;;;;;;11.40;68.50;;;6.77;100.00;95986.41;4960054;28;20039;-46
2022/10/31 03:38:01;;;;;;;;;;;11.30;68.40;;;6.73;100.00;95988.72;4976321;28;20000;-47
2022/10/31 03:40:29;;;;;;;;;;;11.30;68.40;;;6.70;100.00;95987.31;4990557;28;19910;-52
2022/10/31 03:43:04;;;;;;;;;;;11.30;68.40;;;6.68;100.00;95989.41;4975825;28;19948;-46
2022/10/31 03:45:32;;;;;;;;;;;11.20;68.40;;;6.65;100.00;95989.88;4975164;28;19913;-46
2022/10/31 03:47:59;;;;;;;;;;;11.20;68.40;;;6.64;100.00;95987.44;4993324;28;19909;-49
2022/10/31 03:51:06;;;;;;;;;;;11.20;68.50;;;6.60;100.00;95976.50;4974365;28;19917;-45
2022/10/31 03:54:02;;;;;;;;;;;11.20;68.40;;;6.57;100.00;95974.31;4992704;28;19933;-47
2022/10/31 03:56:53;;;;;;;;;;;11.10;68.40;;;6.53;100.00;95973.16;4976193;28;20269;-51
2022/10/31 03:59:32;;;;;;;;;;;11.10;68.50;;;6.51;100.00;95969.13;4976330;28;19913;-51
2022/10/31 04:02:07;;;;;;;;;;;11.10;68.50;;;6.54;100.00;95972.13;4976428;28;19921;-51
2022/10/31 04:04:37;;;;;;;;;;;11.10;68.60;;;6.55;100.00;95979.06;4973961;28;20003;-52
2022/10/31 04:07:07;;;;;;;;;;;11.10;68.70;;;6.52;100.00;95976.03;4937312;28;230725;-48
2022/10/31 04:09:39;;;;;;;;;;;11.10;68.80;;;6.49;100.00;95977.31;4955186;28;20291;-48
2022/10/31 04:12:10;;;;;;;;;;;11.00;68.70;;;6.46;100.00;95977.78;4990621;28;19909;-48
2022/10/31 04:14:40;;;;;;;;;;;11.10;68.70;;;6.46;100.00;95980.41;4973773;28;19931;-46
2022/10/31 04:17:13;;;;;;;;;;;11.00;68.70;;;6.45;100.00;95976.13;4955971;28;19910;-46
2022/10/31 04:19:39;;;;;;;;;;;11.00;68.80;;;6.43;100.00;95983.53;4939820;28;20328;-47
2022/10/31 04:22:05;;;;;;;;;;;11.00;68.70;;;6.38;100.00;95973.59;4962765;28;19910;-47
2022/10/31 04:24:31;;;;;;;;;;;11.00;68.70;;;6.34;100.00;95972.47;4939303;28;20004;-50
2022/10/31 04:27:03;;;;;;;;;;;11.10;68.70;;;6.26;100.00;95963.00;4960507;28;20011;-52
2022/10/31 04:29:28;;;;;;;;;;;11.00;68.60;;;6.24;100.00;95969.56;4978445;28;19910;-48
2022/10/31 04:31:54;;;;;;;;;;;11.00;68.50;;;6.20;100.00;95971.84;4955738;28;19917;-53
2022/10/31 04:34:20;;;;;;;;;;;11.00;68.50;;;6.22;100.00;95972.44;4974868;28;19917;-49
2022/10/31 04:36:46;;;;;;;;;;;10.90;68.40;;;6.23;100.00;95973.22;4955595;28;20365;-47
2022/10/31 04:39:14;;;;;;;;;;;10.90;68.50;;;6.24;100.00;95980.16;4979365;28;19909;-48
2022/10/31 04:41:40;;;;;;;;;;;10.90;68.60;;;6.22;100.00;95977.72;4955745;28;19960;-51
2022/10/31 04:44:12;;;;;;;;;;;10.80;69.30;;;6.19;100.00;95972.09;4972460;28;19914;-52
2022/10/31 04:46:37;;;;;;;;;;;10.80;68.50;;;6.10;100.00;95973.44;4983450;28;19909;-48
2022/10/31 04:49:06;;;;;;;;;;;10.80;68.50;;;6.10;100.00;95976.09;4987326;28;19909;-47
2022/10/31 04:51:32;;;;;;;;;;;10.70;68.50;;;6.10;100.00;95966.31;4983256;28;19909;-48
2022/10/31 04:53:57;;;;;;;;;;;10.70;68.60;;;6.08;100.00;95960.47;4954708;28;19958;-49
2022/10/31 04:56:26;;;;;;;;;;;10.70;68.60;;;6.05;100.00;95965.38;4954761;28;19931;-49
2022/10/31 04:58:52;;;;;;;;;;;10.70;68.60;;;5.99;100.00;95952.03;4990782;28;19920;-49
2022/10/31 05:01:24;;;;;;;;;;;10.70;68.60;;;5.95;100.00;95963.28;4974432;28;19910;-47
2022/10/31 05:03:52;;;;;;;;;;;10.60;68.60;;;5.90;100.00;95949.91;4990210;28;20023;-47
2022/10/31 05:06:24;;;;;;;;;;;10.60;68.60;;;5.88;100.00;95951.97;4991591;28;19933;-47
2022/10/31 05:08:50;;;;;;;;;;;10.50;68.60;;;5.87;100.00;95945.88;4987133;28;19909;-46
2022/10/31 05:11:19;;;;;;;;;;;10.50;68.70;;;5.91;100.00;95946.22;4954851;28;19910;-46
2022/10/31 05:13:50;;;;;;;;;;;10.50;69.60;;;5.91;100.00;95944.38;4972294;28;20388;-46
2022/10/31 05:16:16;;;;;;;;;;;10.50;68.90;;;5.89;100.00;95943.81;4988615;28;19913;-52
2022/10/31 05:18:50;;;;;;;;;;;10.50;68.90;;;5.90;100.00;95942.78;4954656;28;19914;-47
2022/10/31 05:21:16;;;;;;;;;;;10.50;69.00;;;5.92;100.00;95934.59;4982288;28;19910;-46
2022/10/31 05:23:42;;;;;;;;;;;10.50;69.00;;;5.90;100.00;95937.50;4971587;28;19916;-46
2022/10/31 05:26:10;;;;;;;;;;;10.50;69.00;;;5.86;100.00;95940.78;4954601;28;19940;-46
2022/10/31 05:28:39;;;;;;;;;;;10.40;68.80;;;5.79;100.00;95935.59;4972389;28;19944;-46
2022/10/31 05:31:04;;;;;;;;;;;10.40;68.80;;;5.72;100.00;95941.00;4973585;28;19913;-46
2022/10/31 05:33:30;;;;;;;;;;;10.40;68.80;;;5.67;100.00;95934.75;4990068;28;19920;-48
2022/10/31 05:35:59;;;;;;;;;;;10.40;68.80;;;5.69;100.00;95940.63;4974130;28;19913;-48
2022/10/31 05:38:30;;;;;;;;;;;10.40;68.80;;;5.64;100.00;95933.41;4972839;28;19960;-49
2022/10/31 05:41:02;;;;;;;;;;;10.30;68.60;;;5.61;100.00;95931.22;4973661;28;19959;-50
2022/10/31 05:43:29;;;;;;;;;;;10.30;68.70;;;5.68;100.00;95929.25;4973292;28;19916;-46
2022/10/31 05:45:58;;;;;;;;;;;10.30;68.80;;;5.71;100.00;95935.94;4976744;28;19941;-50
2022/10/31 05:48:26;;;;;;;;;;;10.30;68.90;;;5.71;100.00;95930.66;4970674;28;20443;-47
2022/10/31 05:50:52;;;;;;;;;;;10.30;68.90;;;5.67;100.00;95926.84;4958663;28;20348;-49
2022/10/31 05:53:27;;;;;;;;;;;10.30;69.00;;;5.62;100.00;95924.88;4989394;28;19991;-46
2022/10/31 05:55:52;;;;;;;;;;;10.20;68.90;;;5.57;100.00;95932.66;4991211;28;20283;-49
2022/10/31 05:58:18;;;;;;;;;;;10.20;68.80;;;5.49;100.00;95917.94;4989676;28;20019;-47
2022/10/31 06:00:47;;;;;;;;;;;10.20;68.70;;;5.45;100.00;95922.06;4973787;28;19913;-48
2022/10/31 06:03:13;;;;;;;;;;;10.20;68.70;;;5.42;100.00;95929.59;4989518;28;19933;-46
2022/10/31 06:05:42;;;;;;;;;;;10.10;68.70;;;5.35;100.00;95921.78;4973456;28;19940;-46
2022/10/31 06:08:10;;;;;;;;;;;10.10;68.70;;;5.30;100.00;95925.09;4973813;28;20005;-46
2022/10/31 06:10:42;;;;;;;;;;;10.10;68.70;;;5.29;100.00;95925.31;4982254;28;19918;-46
2022/10/31 06:13:11;;;;;;;;;;;10.10;68.70;;;5.29;100.00;95926.09;4950313;28;20399;-47
2022/10/31 06:15:37;;;;;;;;;;;10.10;68.80;;;5.32;100.00;95923.03;4966683;28;19930;-46
2022/10/31 06:18:05;;;;;;;;;;;10.10;69.00;;;5.37;100.00;95934.78;4971435;28;19943;-48
2022/10/31 06:20:33;;;;;;;;;;;10.10;69.00;;;5.34;100.00;95930.75;4970975;28;19940;-49
2022/10/31 06:23:00;;;;;;;;;;;10.20;69.00;;;5.39;100.00;95928.25;4950415;28;19916;-49
2022/10/31 06:25:26;;;;;;;;;;;10.20;69.00;;;5.43;100.00;95936.53;4955159;28;19910;-48
2022/10/31 06:27:57;;;;;;;;;;;10.20;69.00;;;5.40;100.00;95936.97;4971485;28;20339;-48
2022/10/31 06:30:23;;;;;;;;;;;10.20;68.90;;;5.40;100.00;95931.69;4957097;28;19917;-48
2022/10/31 06:32:49;;;;;;;;;;;10.30;68.90;;;5.47;100.00;95929.75;4957371;28;19910;-48
2022/10/31 06:35:15;;;;;;;;;;;10.30;68.90;;;5.49;100.00;95935.63;4967668;28;19918;-48
2022/10/31 06:37:41;;;;;;;;;;;10.30;68.80;;;5.51;100.00;95929.06;4973267;28;19913;-49
2022/10/31 06:40:07;;;;;;;;;;;10.30;68.70;;;5.54;100.00;95936.56;4955854;28;19960;-49
2022/10/31 06:42:33;;;;;;;;;;;10.30;68.70;;;5.55;100.00;95922.34;4973836;28;19967;-48
2022/10/31 06:44:59;;;;;;;;;;;10.40;68.70;;;5.59;100.00;95929.81;4956367;28;19945;-47
2022/10/31 06:47:27;;;;;;;;;;;10.50;68.80;;;5.58;100.00;95934.28;4957064;28;19913;-50
2022/10/31 06:49:53;;;;;;;;;;;10.50;68.70;;;5.65;100.00;95926.28;4974468;28;19937;-52
2022/10/31 06:52:19;;;;;;;;;;;10.50;68.60;;;5.70;100.00;95924.56;4968186;28;19949;-47
2022/10/31 06:54:44;;;;;;;;;;;10.60;68.70;;;5.74;100.00;95927.56;4953719;28;19953;-48
2022/10/31 06:57:13;;;;;;;;;;;10.60;68.70;;;5.79;100.00;95928.47;4944327;28;20379;-48
2022/10/31 06:59:39;;;;;;;;;;;10.70;68.60;;;5.84;100.00;95934.94;4973803;28;19916;-45
2022/10/31 07:02:09;;;;;;;;;;;10.80;68.70;;;5.86;100.00;95941.63;4974236;28;19913;-47
2022/10/31 07:04:34;;;;;;;;;;;10.90;68.60;;;5.94;100.00;95943.16;4964023;28;20320;-47
2022/10/31 07:07:03;;;;;;;;;;;10.90;68.60;;;6.01;100.00;95947.31;4962058;28;19913;-50
2022/10/31 07:09:29;;;;;;;;;;;11.00;68.60;;;6.10;100.00;95942.50;4955244;28;19914;-50
2022/10/31 07:11:58;;;;;;;;;;;11.10;68.50;;;6.19;100.00;95946.44;4974326;28;19960;-48
2022/10/31 07:14:24;;;;;;;;;;;11.20;68.50;;;6.32;100.00;95941.97;4970379;28;20218;-51
2022/10/31 07:16:51;;;;;;;;;;;11.40;68.60;;;6.51;100.00;95947.97;4974147;28;19914;-51
2022/10/31 07:19:17;;;;;;;;;;;11.50;68.60;;;6.73;100.00;95955.09;4940596;28;20035;-52
2022/10/31 07:21:43;;;;;;;;;;;11.80;68.60;;;6.92;100.00;95953.13;4939276;28;19941;-53
2022/10/31 07:24:09;;;;;;;;;;;12.00;68.50;;;7.09;100.00;95961.16;4973418;28;19987;-52
2022/10/31 07:26:34;;;;;;;;;;;12.20;68.40;;;7.28;100.00;95961.03;4955439;28;19922;-50
2022/10/31 07:29:00;;;;;;;;;;;12.40;68.30;;;7.41;100.00;95952.81;4973618;28;19914;-51
2022/10/31 07:31:29;;;;;;;;;;;12.60;68.20;;;7.50;100.00;95959.34;4972347;28;20258;-50
2022/10/31 07:33:54;;;;;;;;;;;12.80;68.20;;;7.64;100.00;95965.16;4954773;28;19913;-50
2022/10/31 07:36:20;;;;;;;;;;;13.00;68.00;;;7.80;100.00;95967.09;4943924;28;19925;-51
2022/10/31 07:38:46;;;;;;;;;;;13.10;67.80;;;7.92;100.00;95955.59;4971500;28;19910;-50
2022/10/31 07:41:12;;;;;;;;;;;13.30;67.80;;;8.03;100.00;95958.19;4972611;28;20372;-54
2022/10/31 07:43:37;;;;;;;;;;;13.40;67.60;;;8.09;100.00;95959.91;4955770;28;20503;-50
2022/10/31 07:46:06;;;;;;;;;;;13.60;67.50;;;8.19;100.00;95964.56;4966046;28;19910;-52
2022/10/31 07:48:32;;;;;;;;;;;13.80;67.30;;;8.33;100.00;95965.06;4937139;28;20377;-49
2022/10/31 07:51:04;;;;;;;;;;;14.00;67.20;;;8.46;100.00;95951.50;4942115;28;19960;-50
2022/10/31 07:53:30;;;;;;;;;;;14.20;67.00;;;8.63;100.00;95953.34;4956045;28;19971;-51
2022/10/31 07:55:56;;;;;;;;;;;14.40;66.70;;;8.81;100.00;95955.75;4972578;28;20404;-52
2022/10/31 07:58:27;;;;;;;;;;;14.70;66.60;;;9.03;100.00;95955.78;4955194;28;19913;-49
2022/10/31 08:00:59;;;;;;;;;;;15.00;66.30;;;9.20;100.00;95955.72;4972313;28;20315;-49
2022/10/31 08:03:28;;;;;;;;;;;15.40;66.10;;;9.37;100.00;95958.31;4968304;28;20005;-49
2022/10/31 08:05:53;;;;;;;;;;;15.60;65.80;;;9.66;100.00;95950.97;4921365;28;20369;-49
2022/10/31 08:08:19;;;;;;;;;;;15.90;65.70;;;9.91;100.00;95967.19;4953563;28;19944;-49
2022/10/31 08:10:51;;;;;;;;;;;16.20;65.50;;;10.23;100.00;95971.75;4972982;28;19949;-50
2022/10/31 08:13:19;;;;;;;;;;;16.60;65.40;;;10.39;100.00;95967.41;4971296;28;19925;-48
2022/10/31 08:15:50;;;;;;;;;;;16.90;65.10;;;10.60;100.00;95966.50;4954344;28;19925;-49
2022/10/31 08:18:37;;;;;;;;;;;17.30;64.80;;;10.78;100.00;95967.97;4973100;28;20049;-52
2022/10/31 08:21:03;;;;;;;;;;;17.70;64.40;;;10.99;100.00;95963.56;4954646;28;19921;-49
2022/10/31 08:23:29;;;;;;;;;;;18.00;64.00;;;11.25;100.00;95951.19;4955403;28;19910;-46
2022/10/31 08:25:54;;;;;;;;;;;18.30;64.00;;;11.48;99.16;95952.63;4955643;28;20360;-50
2022/10/31 08:28:20;;;;;;;;;;;18.60;63.80;;;11.81;97.96;95956.75;4954640;28;19914;-47
2022/10/31 08:30:47;;;;;;;;;;;18.90;63.70;;;11.98;96.50;95958.41;4955491;28;19943;-48
2022/10/31 08:33:17;;;;;;;;;;;19.30;63.50;;;12.17;93.29;95956.84;4954127;28;20029;-50
2022/10/31 08:35:47;;;;;;;;;;;19.60;63.10;;;12.29;92.22;95958.47;4971781;28;20292;-48
2022/10/31 08:38:16;;;;;;;;;;;19.90;62.70;;;12.66;92.96;95964.34;4972785;28;19940;-47
2022/10/31 08:40:42;;;;;;;;;;;20.20;62.50;;;12.88;90.41;95952.53;4970805;28;19917;-46
2022/10/31 08:43:16;;;;;;;;;;;20.50;62.20;;;13.08;87.18;95959.75;4938319;28;19910;-50
2022/10/31 08:45:44;;;;;;;;;;;20.70;61.70;;;13.32;87.19;95955.44;4971557;28;20261;-50
2022/10/31 08:48:17;;;;;;;;;;;20.80;61.50;;;13.46;86.04;95952.97;4972440;28;19916;-51
2022/10/31 08:50:46;;;;;;;;;;;20.90;61.30;;;13.52;84.02;95951.09;4954355;28;19953;-48
2022/10/31 08:53:22;;;;;;;;;;;21.00;61.00;;;13.67;84.16;95948.34;4938831;28;19975;-46
2022/10/31 08:55:55;;;;;;;;;;;21.10;60.80;;;13.69;82.11;95948.06;4939141;28;19917;-47
2022/10/31 08:58:23;;;;;;;;;;;21.20;60.60;;;13.80;83.33;95942.38;4971287;28;19920;-49
2022/10/31 09:00:52;;;;;;;;;;;21.20;60.30;;;14.08;82.51;95940.88;4939128;28;19913;-49
2022/10/31 09:03:30;;;;;;;;;;;21.40;60.30;;;14.17;80.75;95943.78;4953611;28;19910;-49
2022/10/31 09:05:59;;;;;;;;;;;21.70;60.20;;;14.25;81.13;95945.06;4936681;28;19964;-52
2022/10/31 09:08:25;;;;;;;;;;;21.80;59.70;;;14.21;80.00;95957.41;4936037;28;19910;-50
2022/10/31 09:10:51;;;;;;;;;;;22.00;59.50;;;14.21;79.97;95952.84;4963527;28;20371;-51
2022/10/31 09:13:21;;;;;;;;;;;22.10;59.10;;;14.23;79.77;95961.41;4937696;28;20304;-53
2022/10/31 09:15:52;;;;;;;;;;;22.30;58.90;;;14.34;79.13;95964.81;4969055;28;20361;-56
2022/10/31 09:18:23;;;;;;;;;;;22.30;58.60;;;14.42;78.93;95966.13;4970671;28;19922;-51
2022/10/31 09:20:59;;;;;;;;;;;22.40;58.50;;;14.43;77.96;95960.47;4953658;28;20005;-56
2022/10/31 09:23:25;;;;;;;;;;;22.30;58.30;;;14.38;78.26;95960.50;4970201;28;19917;-51
2022/10/31 09:25:53;;;;;;;;;;;22.20;58.10;;;14.17;78.81;95954.50;4954799;28;19917;-53
2022/10/31 09:28:23;;;;;;;;;;;22.20;58.00;;;14.22;79.20;95953.66;4962607;28;19910;-56
2022/10/31 09:30:54;;;;;;;;;;;22.20;57.80;;;14.28;80.34;95947.97;4951381;28;19909;-50
2022/10/31 09:33:20;;;;;;;;;;;22.30;57.70;;;14.28;79.76;95945.28;4958006;28;19910;-49
2022/10/31 09:35:50;;;;;;;;;;;22.40;57.60;;;14.71;78.64;95936.69;4970729;28;20346;-52
2022/10/31 09:38:20;;;;;;;;;;;22.50;57.50;;;15.04;77.18;95946.56;4954334;28;19910;-52
2022/10/31 09:41:35;;;;;;;;;;;22.70;57.50;;;15.30;77.25;95940.94;4967149;28;19917;-50
2022/10/31 09:45:03;;;;;;;;;;;22.90;57.50;;;15.69;74.19;95939.94;4971256;28;19921;-54
2022/10/31 09:48:24;;;;;;;;;;;23.20;57.40;;;15.92;72.26;95922.22;4970259;28;20004;-55
2022/10/31 09:51:07;;;;;;;;;;;23.50;57.20;;;15.88;73.04;95923.84;4970377;28;20344;-56
2022/10/31 09:53:58;;;;;;;;;;;23.80;56.80;;;16.10;72.67;95923.28;4939905;29;19937;-54
2022/10/31 09:56:26;;;;;;;;;;;24.00;56.40;;;16.51;69.74;95922.66;4955456;28;19921;-50
2022/10/31 09:59:00;;;;;;;;;;;24.30;56.20;;;16.84;68.51;95936.94;4968231;28;20008;-50
2022/10/31 10:01:52;;;;;;;;;;;24.50;56.00;;;17.09;68.94;95927.63;4955428;28;19914;-51
2022/10/31 10:04:28;;;;;;;;;;;24.70;55.80;;;17.19;68.39;95926.63;4970136;28;20369;-56
2022/10/31 10:06:54;;;;;;;;;;;24.90;55.50;;;17.20;68.46;95922.81;4974684;28;19917;-56
2022/10/31 10:09:26;;;;;;;;;;;25.00;55.30;;;17.54;67.08;95919.75;4974503;28;20008;-54
2022/10/31 10:12:49;;;;;;;;;;;25.00;55.10;;;17.46;65.55;95917.78;4974093;28;19944;-56
2022/10/31 10:15:59;;;;;;;;;;;24.90;55.00;;;17.53;64.09;95902.78;4973159;28;19918;-56
2022/10/31 10:18:45;;;;;;;;;;;24.80;54.80;;;17.43;63.80;95912.97;4957279;28;20387;-56
2022/10/31 10:21:37;;;;;;;;;;;24.70;54.60;;;17.49;64.23;95909.09;4971927;28;20339;-56
2022/10/31 10:24:52;;;;;;;;;;;24.60;54.50;;;17.52;64.62;95905.78;4955430;28;19948;-55
2022/10/31 10:27:52;;;;;;;;;;;24.50;54.50;;;17.57;65.17;95900.28;4957464;28;19956;-52
2022/10/31 10:30:40;;;;;;;;;;;24.30;54.40;;;17.45;64.23;95910.78;4962941;28;19914;-55
2022/10/31 10:33:19;;;;;;;;;;;24.00;54.40;;;17.18;64.88;95911.59;4950957;28;19910;-56
2022/10/31 10:36:00;;;;;;;;;;;23.80;54.30;;;17.06;66.99;95904.78;4958122;28;20016;-56
2022/10/31 10:38:56;;;;;;;;;;;23.60;54.30;;;17.01;68.16;95902.19;4956166;28;19916;-54
2022/10/31 10:41:32;;;;;;;;;;;23.40;54.40;;;16.88;68.78;95905.66;4973677;28;20313;-56
2022/10/31 10:43:57;;;;;;;;;;;23.10;54.40;;;16.58;70.36;95904.28;4972205;28;20319;-53
2022/10/31 10:49:29;;;;;;;;;;;22.70;54.60;;;15.95;73.41;95892.88;4968727;28;20121;-54
2022/10/31 10:52:10;;;;;;;;;;;22.40;54.70;;;15.68;75.46;95892.72;4966130;28;19968;-56
2022/10/31 10:55:11;;;;;;;;;;;22.20;54.80;;;15.60;76.04;95886.06;4972794;28;20020;-55
2022/10/31 10:58:02;;;;;;;;;;;22.00;55.00;;;15.56;76.35;95878.88;4947961;28;19910;-56
2022/10/31 11:00:32;;;;;;;;;;;21.90;55.20;;;15.48;76.30;95891.88;4953502;28;19910;-55
2022/10/31 11:02:58;;;;;;;;;;;21.80;55.30;;;15.40;76.94;95892.50;4956976;28;19917;-56
2022/10/31 11:05:42;;;;;;;;;;;21.70;55.30;;;15.42;77.41;95892.22;4972509;28;19933;-52
2022/10/31 11:08:08;;;;;;;;;;;21.70;55.40;;;15.38;76.97;95886.59;4972624;28;19955;-54
2022/10/31 11:10:35;;;;;;;;;;;21.60;55.40;;;15.27;76.84;95885.94;4971600;28;19910;-54
2022/10/31 11:13:23;;;;;;;;;;;21.50;55.50;;;15.14;77.38;95886.63;4974741;28;19917;-55
2022/10/31 11:16:01;;;;;;;;;;;21.50;55.40;;;15.11;77.70;95889.09;4975116;28;19917;-56
2022/10/31 11:18:32;;;;;;;;;;;21.40;55.40;;;15.14;78.22;95892.00;4993588;28;19910;-51
2022/10/31 11:21:05;;;;;;;;;;;21.40;55.50;;;15.18;77.76;95879.59;4975066;28;19910;-55
2022/10/31 11:23:33;;;;;;;;;;;21.30;55.60;;;15.25;77.50;95879.25;4976135;28;19920;-54
2022/10/31 11:26:22;;;;;;;;;;;21.30;55.70;;;15.33;77.70;95880.53;4993618;28;19910;-56
2022/10/31 11:28:59;;;;;;;;;;;21.30;55.70;;;15.35;77.44;95879.13;4981969;28;20423;-55
2022/10/31 11:31:27;;;;;;;;;;;21.30;55.80;;;15.44;77.18;95866.66;4957043;28;19964;-56
2022/10/31 11:34:04;;;;;;;;;;;21.40;55.80;;;15.55;76.88;95867.34;4967034;28;19909;-53
2022/10/31 11:36:38;;;;;;;;;;;21.40;55.80;;;15.57;76.81;95857.09;4976481;28;19963;-54
2022/10/31 11:39:23;;;;;;;;;;;21.50;55.80;;;15.64;76.49;95859.44;4991950;28;20372;-55
2022/10/31 11:41:54;;;;;;;;;;;21.70;55.80;;;15.73;75.70;95861.22;4992846;28;20008;-51
2022/10/31 11:44:28;;;;;;;;;;;21.70;55.60;;;15.83;75.57;95860.28;4975291;28;19948;-48
2022/10/31 11:47:01;;;;;;;;;;;21.80;55.70;;;16.00;74.57;95858.97;4976324;28;19945;-53
2022/10/31 11:50:10;;;;;;;;;;;21.90;55.60;;;16.24;73.17;95867.72;4976116;28;19909;-48
2022/10/31 11:52:55;;;;;;;;;;;22.30;55.60;;;16.64;72.17;95862.75;4912125;29;19917;-56